CheckWX is a tool to help pilots better visualize weather data.  It is not intended as a substitute for an official pre-flight weather briefing.

21:10:02 UTC

PAFA TAF
Fairbanks International Airport
Fairbanks, Alaska, USA
PAFA 171731Z 1718/1824 VRB03KT P6SM SCT003 SCT090 FM172000 03004KT P6SM SCT050 FM181300 VRB03KT P6SM BCFG SCT005 SCT100 FM181700 VRB05KT P6SM SCT100

Aug-17@
18:00 UTC

Aug-17 @ 18:00 UTC

Aug-17@
20:00 UTC

Aug-17 @ 20:00 UTC

PAFA 171731Z 1718/1824 VRB03KT P6SM SCT003 SCT090

Expired

Wind
  • Variable at 3 KTS
Cloud Levels
  • Scattered at 300' AGL
  • Scattered at 9,000' AGL

Aug-17@
20:00 UTC

Aug-17 @ 20:00 UTC

Aug-18@
13:00 UTC

Aug-18 @ 13:00 UTC

FM172000 03004KT P6SM SCT050

From

From Standard forecast or significant change

Wind
  • 030° at 4 KTS
Cloud Levels
  • Scattered at 5,000' AGL

Aug-18@
13:00 UTC

Aug-18 @ 13:00 UTC

Aug-18@
17:00 UTC

Aug-18 @ 17:00 UTC

FM181300 VRB03KT P6SM BCFG SCT005 SCT100

From

From Standard forecast or significant change

Wind
  • Variable at 3 KTS
Conditions
Patches of Fog
Cloud Levels
  • Scattered at 500' AGL
  • Scattered at 10,000' AGL

Aug-18@
17:00 UTC

Aug-18 @ 17:00 UTC

Aug-19@
00:00 UTC

Aug-19 @ 00:00 UTC

FM181700 VRB05KT P6SM SCT100

From

From Standard forecast or significant change

Wind
  • Variable at 5 KTS
Cloud Levels
  • Scattered at 10,000' AGL